首页
METAR-TAF:

METAR-TAF

机场 :

奥斯汀, 明尼蘇達州, 美国

纬度: 43-40N, 经度: 092-56W, 海拔: 375米

当前天气观测

该预报发布于17分钟前的04:59 UTC
静风
温度 3°C
湿度 93%
气压 1005 hPa
能見度: 8.0公里
阴天层高于800英尺
毛毛雨

METAR: KAUM 190459Z AUTO 00000KT 5SM DZ OVC008 03/02 A2968 RMK AO2

时间: 23:16 (05:16 UTC)


TAF: 丢失

超过4000个机场的气象观测和天气预报(METAR&TAF报告)。

可查询的气象台以黄色和红色小点在地图上表示。

将鼠标移到小点上方,可查看气象台名称。

然后点击查看天气观测和预报。

如需切换地图:点击带黑十字的绿色按钮放大地图;点击带横线的绿色按钮缩小地图;或者点击绿色箭头查看邻近地区的地图。


METAR-TAF: